sensor_id;sensor_type;location;lat;lon;timestamp;pressure;altitude;pressure_sealevel;temperature;humidity
29385;BME280;16367;48.736;9.218;2024-01-10T00:00:20;-23029.94;;;-4.35;70.16
29385;BME280;16367;48.736;9.218;2024-01-10T00:02:22;-23030.44;;;-4.33;70.94
29385;BME280;16367;48.736;9.218;2024-01-10T00:04:23;-23031.25;;;-4.31;70.67
29385;BME280;16367;48.736;9.218;2024-01-10T00:06:26;-23030.59;;;-4.33;70.58
29385;BME280;16367;48.736;9.218;2024-01-10T00:12:43;-23028.50;;;-4.39;71.14
29385;BME280;16367;48.736;9.218;2024-01-10T00:14:45;-23027.88;;;-4.41;71.30
29385;BME280;16367;48.736;9.218;2024-01-10T00:16:46;-23030.59;;;-4.33;70.98
29385;BME280;16367;48.736;9.218;2024-01-10T00:18:48;-23027.72;;;-4.42;71.25
29385;BME280;16367;48.736;9.218;2024-01-10T00:20:49;-23030.28;;;-4.34;71.30
29385;BME280;16367;48.736;9.218;2024-01-10T00:22:51;-23036.69;;;-4.14;70.57
29385;BME280;16367;48.736;9.218;2024-01-10T00:24:52;-23030.91;;;-4.32;71.05
29385;BME280;16367;48.736;9.218;2024-01-10T00:26:54;-23027.72;;;-4.42;71.16
29385;BME280;16367;48.736;9.218;2024-01-10T00:28:57;-23027.38;;;-4.43;71.59
29385;BME280;16367;48.736;9.218;2024-01-10T00:35:18;-23027.88;;;-4.41;71.88
29385;BME280;16367;48.736;9.218;2024-01-10T00:37:20;-23027.06;;;-4.44;71.13
29385;BME280;16367;48.736;9.218;2024-01-10T00:39:21;-23024.34;;;-4.53;71.57
29385;BME280;16367;48.736;9.218;2024-01-10T00:41:23;-23024.81;;;-4.51;71.53
29385;BME280;16367;48.736;9.218;2024-01-10T00:43:24;-23028.34;;;-4.40;70.66
29385;BME280;16367;48.736;9.218;2024-01-10T00:45:25;-23028.34;;;-4.40;70.71
29385;BME280;16367;48.736;9.218;2024-01-10T00:47:27;-23031.41;;;-4.30;70.59
29385;BME280;16367;48.736;9.218;2024-01-10T00:49:28;-23034.13;;;-4.22;70.33
29385;BME280;16367;48.736;9.218;2024-01-10T00:51:30;-23024.81;;;-4.51;70.82
29385;BME280;16367;48.736;9.218;2024-01-10T00:57:46;-23023.53;;;-4.55;71.39
29385;BME280;16367;48.736;9.218;2024-01-10T00:59:47;-23022.25;;;-4.59;71.13
29385;BME280;16367;48.736;9.218;2024-01-10T01:01:48;-23023.69;;;-4.55;71.22
29385;BME280;16367;48.736;9.218;2024-01-10T01:03:50;-23024.03;;;-4.54;71.07
29385;BME280;16367;48.736;9.218;2024-01-10T01:05:51;-23026.25;;;-4.46;71.27
29385;BME280;16367;48.736;9.218;2024-01-10T01:07:53;-23025.47;;;-4.49;71.25
29385;BME280;16367;48.736;9.218;2024-01-10T01:09:54;-23024.50;;;-4.52;71.35
29385;BME280;16367;48.736;9.218;2024-01-10T01:11:55;-23027.22;;;-4.43;70.78
29385;BME280;16367;48.736;9.218;2024-01-10T01:13:57;-23023.06;;;-4.57;71.22
29385;BME280;16367;48.736;9.218;2024-01-10T01:20:12;-23023.88;;;-4.54;70.36
29385;BME280;16367;48.736;9.218;2024-01-10T01:22:13;-23027.72;;;-4.42;71.29
29385;BME280;16367;48.736;9.218;2024-01-10T01:24:15;-23027.06;;;-4.44;71.34
29385;BME280;16367;48.736;9.218;2024-01-10T01:26:16;-23026.25;;;-4.46;71.63
29385;BME280;16367;48.736;9.218;2024-01-10T01:28:18;-23021.28;;;-4.62;71.14
29385;BME280;16367;48.736;9.218;2024-01-10T01:30:19;-23022.25;;;-4.59;71.54
29385;BME280;16367;48.736;9.218;2024-01-10T01:32:22;-23019.53;;;-4.68;72.14
29385;BME280;16367;48.736;9.218;2024-01-10T01:34:24;-23025.31;;;-4.49;71.57
29385;BME280;16367;48.736;9.218;2024-01-10T01:36:26;-23024.50;;;-4.52;71.45
29385;BME280;16367;48.736;9.218;2024-01-10T01:42:42;-23022.56;;;-4.58;71.61
29385;BME280;16367;48.736;9.218;2024-01-10T01:44:44;-23022.56;;;-4.58;71.32
29385;BME280;16367;48.736;9.218;2024-01-10T01:46:46;-23023.88;;;-4.54;71.34
29385;BME280;16367;48.736;9.218;2024-01-10T01:48:48;-23030.59;;;-4.33;71.24
29385;BME280;16367;48.736;9.218;2024-01-10T01:50:52;-23027.06;;;-4.44;70.62
29385;BME280;16367;48.736;9.218;2024-01-10T01:52:55;-23020.00;;;-4.66;70.62
29385;BME280;16367;48.736;9.218;2024-01-10T01:54:56;-23025.78;;;-4.48;71.01
29385;BME280;16367;48.736;9.218;2024-01-10T01:56:57;-23027.72;;;-4.42;70.69
29385;BME280;16367;48.736;9.218;2024-01-10T01:58:59;-23025.16;;;-4.50;70.80
29385;BME280;16367;48.736;9.218;2024-01-10T02:05:15;-23021.63;;;-4.61;71.30
29385;BME280;16367;48.736;9.218;2024-01-10T02:07:17;-23021.28;;;-4.62;71.40
29385;BME280;16367;48.736;9.218;2024-01-10T02:09:18;-23023.88;;;-4.54;71.49
29385;BME280;16367;48.736;9.218;2024-01-10T02:11:20;-23024.97;;;-4.50;71.44
29385;BME280;16367;48.736;9.218;2024-01-10T02:13:22;-23020.66;;;-4.64;71.87
29385;BME280;16367;48.736;9.218;2024-01-10T02:15:23;-23023.06;;;-4.57;72.25
29385;BME280;16367;48.736;9.218;2024-01-10T02:17:25;-23021.47;;;-4.62;72.20
29385;BME280;16367;48.736;9.218;2024-01-10T02:19:27;-23022.56;;;-4.58;72.56
29385;BME280;16367;48.736;9.218;2024-01-10T02:21:30;-23017.78;;;-4.73;73.07
29385;BME280;16367;48.736;9.218;2024-01-10T02:28:58;-23017.78;;;-4.73;73.94
29385;BME280;16367;48.736;9.218;2024-01-10T02:31:00;-23014.25;;;-4.84;74.35
29385;BME280;16367;48.736;9.218;2024-01-10T02:33:01;-23014.88;;;-4.82;74.10
29385;BME280;16367;48.736;9.218;2024-01-10T02:35:03;-23017.44;;;-4.74;74.06
29385;BME280;16367;48.736;9.218;2024-01-10T02:37:05;-23018.91;;;-4.70;73.81
29385;BME280;16367;48.736;9.218;2024-01-10T02:39:06;-23018.41;;;-4.71;73.70
29385;BME280;16367;48.736;9.218;2024-01-10T02:41:08;-23014.25;;;-4.84;73.31
29385;BME280;16367;48.736;9.218;2024-01-10T02:43:09;-23016.31;;;-4.78;73.60
29385;BME280;16367;48.736;9.218;2024-01-10T02:45:12;-23014.88;;;-4.82;73.33
29385;BME280;16367;48.736;9.218;2024-01-10T02:51:27;-23013.28;;;-4.87;73.86
29385;BME280;16367;48.736;9.218;2024-01-10T02:53:29;-23017.44;;;-4.74;73.44
29385;BME280;16367;48.736;9.218;2024-01-10T02:55:31;-23021.94;;;-4.60;73.58
29385;BME280;16367;48.736;9.218;2024-01-10T02:57:32;-23026.44;;;-4.46;73.06
29385;BME280;16367;48.736;9.218;2024-01-10T02:59:34;-23020.00;;;-4.66;73.32
29385;BME280;16367;48.736;9.218;2024-01-10T03:01:35;-23014.09;;;-4.85;74.15
29385;BME280;16367;48.736;9.218;2024-01-10T03:03:36;-23013.28;;;-4.87;74.41
29385;BME280;16367;48.736;9.218;2024-01-10T03:05:38;-23015.69;;;-4.80;74.72
29385;BME280;16367;48.736;9.218;2024-01-10T03:07:40;-23016.31;;;-4.78;74.07
29385;BME280;16367;48.736;9.218;2024-01-10T03:14:02;-23021.63;;;-4.61;74.31
29385;BME280;16367;48.736;9.218;2024-01-10T03:16:04;-23023.88;;;-4.54;73.52
29385;BME280;16367;48.736;9.218;2024-01-10T03:18:06;-23016.50;;;-4.77;73.99
29385;BME280;16367;48.736;9.218;2024-01-10T03:20:08;-23016.81;;;-4.76;74.13
29385;BME280;16367;48.736;9.218;2024-01-10T03:22:10;-23017.13;;;-4.75;74.28
29385;BME280;16367;48.736;9.218;2024-01-10T03:24:12;-23015.22;;;-4.81;74.23
29385;BME280;16367;48.736;9.218;2024-01-10T03:26:13;-23020.00;;;-4.66;74.48
29385;BME280;16367;48.736;9.218;2024-01-10T03:28:15;-23022.56;;;-4.58;74.16
29385;BME280;16367;48.736;9.218;2024-01-10T03:30:18;-23022.25;;;-4.59;74.53
29385;BME280;16367;48.736;9.218;2024-01-10T03:38:34;-23026.44;;;-4.46;74.34
29385;BME280;16367;48.736;9.218;2024-01-10T03:40:36;-23019.69;;;-4.67;74.41
29385;BME280;16367;48.736;9.218;2024-01-10T03:42:38;-23028.34;;;-4.40;73.96
29385;BME280;16367;48.736;9.218;2024-01-10T03:44:39;-23029.31;;;-4.37;73.71
29385;BME280;16367;48.736;9.218;2024-01-10T03:46:40;-23027.72;;;-4.42;74.04
29385;BME280;16367;48.736;9.218;2024-01-10T03:48:42;-23026.44;;;-4.46;74.01
29385;BME280;16367;48.736;9.218;2024-01-10T03:50:48;-23027.06;;;-4.44;74.37
29385;BME280;16367;48.736;9.218;2024-01-10T03:52:49;-23024.03;;;-4.54;74.49
29385;BME280;16367;48.736;9.218;2024-01-10T03:54:52;-23020.97;;;-4.63;75.04
29385;BME280;16367;48.736;9.218;2024-01-10T04:01:07;-23017.13;;;-4.75;75.31
29385;BME280;16367;48.736;9.218;2024-01-10T04:03:08;-23019.53;;;-4.68;75.50
29385;BME280;16367;48.736;9.218;2024-01-10T04:05:10;-23023.22;;;-4.56;75.33
29385;BME280;16367;48.736;9.218;2024-01-10T04:07:12;-23023.22;;;-4.56;75.27
29385;BME280;16367;48.736;9.218;2024-01-10T04:09:14;-23023.22;;;-4.56;76.01
29385;BME280;16367;48.736;9.218;2024-01-10T04:11:15;-23026.75;;;-4.45;75.67
29385;BME280;16367;48.736;9.218;2024-01-10T04:13:16;-23021.13;;;-4.63;76.48
29385;BME280;16367;48.736;9.218;2024-01-10T04:15:17;-23023.88;;;-4.54;76.21
29385;BME280;16367;48.736;9.218;2024-01-10T04:19:33;-23014.88;;;-4.82;77.23
29385;BME280;16367;48.736;9.218;2024-01-10T04:21:34;-23019.06;;;-4.69;77.21
29385;BME280;16367;48.736;9.218;2024-01-10T04:23:36;-23019.06;;;-4.69;77.26
29385;BME280;16367;48.736;9.218;2024-01-10T04:25:37;-23017.44;;;-4.74;77.46
29385;BME280;16367;48.736;9.218;2024-01-10T04:27:38;-23015.84;;;-4.79;77.80
29385;BME280;16367;48.736;9.218;2024-01-10T04:29:39;-23017.44;;;-4.74;77.81
29385;BME280;16367;48.736;9.218;2024-01-10T04:31:41;-23020.97;;;-4.63;77.42
29385;BME280;16367;48.736;9.218;2024-01-10T04:33:43;-23026.59;;;-4.45;77.39
29385;BME280;16367;48.736;9.218;2024-01-10T04:35:45;-23029.31;;;-4.37;77.68
29385;BME280;16367;48.736;9.218;2024-01-10T04:37:46;-23025.31;;;-4.49;78.24
29385;BME280;16367;48.736;9.218;2024-01-10T04:40:15;-23027.72;;;-4.42;78.01
29385;BME280;16367;48.736;9.218;2024-01-10T04:42:16;-23025.47;;;-4.49;78.05
29385;BME280;16367;48.736;9.218;2024-01-10T04:44:18;-23026.44;;;-4.46;78.28
29385;BME280;16367;48.736;9.218;2024-01-10T04:46:19;-23030.28;;;-4.34;78.33
29385;BME280;16367;48.736;9.218;2024-01-10T04:48:21;-23030.91;;;-4.32;78.04
29385;BME280;16367;48.736;9.218;2024-01-10T04:50:22;-23030.91;;;-4.32;77.61
29385;BME280;16367;48.736;9.218;2024-01-10T04:52:24;-23026.44;;;-4.46;77.50
29385;BME280;16367;48.736;9.218;2024-01-10T04:54:25;-23024.34;;;-4.53;77.31
29385;BME280;16367;48.736;9.218;2024-01-10T04:56:27;-23021.13;;;-4.63;77.15
29385;BME280;16367;48.736;9.218;2024-01-10T04:58:29;-23021.13;;;-4.63;77.65
29385;BME280;16367;48.736;9.218;2024-01-10T05:06:44;-23027.38;;;-4.43;79.02
29385;BME280;16367;48.736;9.218;2024-01-10T05:08:46;-23025.16;;;-4.50;78.68
29385;BME280;16367;48.736;9.218;2024-01-10T05:10:47;-23022.09;;;-4.60;78.91
29385;BME280;16367;48.736;9.218;2024-01-10T05:12:48;-23020.97;;;-4.63;78.75
29385;BME280;16367;48.736;9.218;2024-01-10T05:14:50;-23019.69;;;-4.67;79.30
29385;BME280;16367;48.736;9.218;2024-01-10T05:16:51;-23021.13;;;-4.63;78.82
29385;BME280;16367;48.736;9.218;2024-01-10T05:18:54;-23019.69;;;-4.67;79.03
29385;BME280;16367;48.736;9.218;2024-01-10T05:20:55;-23017.44;;;-4.74;79.90
29385;BME280;16367;48.736;9.218;2024-01-10T05:22:57;-23017.28;;;-4.75;80.10
29385;BME280;16367;48.736;9.218;2024-01-10T05:29:12;-23020.97;;;-4.63;80.84
29385;BME280;16367;48.736;9.218;2024-01-10T05:31:14;-23015.03;;;-4.82;80.78
29385;BME280;16367;48.736;9.218;2024-01-10T05:33:15;-23019.69;;;-4.67;80.53
29385;BME280;16367;48.736;9.218;2024-01-10T05:35:16;-23020.97;;;-4.63;80.47
29385;BME280;16367;48.736;9.218;2024-01-10T05:37:18;-23017.13;;;-4.75;80.59
29385;BME280;16367;48.736;9.218;2024-01-10T05:39:20;-23015.69;;;-4.80;81.23
29385;BME280;16367;48.736;9.218;2024-01-10T05:41:22;-23015.53;;;-4.80;81.51
29385;BME280;16367;48.736;9.218;2024-01-10T05:43:25;-23018.41;;;-4.71;81.50
29385;BME280;16367;48.736;9.218;2024-01-10T05:45:28;-23017.44;;;-4.74;81.43
29385;BME280;16367;48.736;9.218;2024-01-10T05:53:43;-23014.56;;;-4.83;81.23
29385;BME280;16367;48.736;9.218;2024-01-10T05:55:44;-23014.88;;;-4.82;81.89
29385;BME280;16367;48.736;9.218;2024-01-10T05:57:46;-23016.16;;;-4.78;81.94
29385;BME280;16367;48.736;9.218;2024-01-10T05:59:47;-23015.53;;;-4.80;81.84
29385;BME280;16367;48.736;9.218;2024-01-10T06:01:49;-23012.97;;;-4.88;82.47
29385;BME280;16367;48.736;9.218;2024-01-10T06:03:50;-23012.66;;;-4.89;83.00
29385;BME280;16367;48.736;9.218;2024-01-10T06:05:52;-23012.47;;;-4.90;83.01
29385;BME280;16367;48.736;9.218;2024-01-10T06:07:56;-23014.25;;;-4.84;82.75
29385;BME280;16367;48.736;9.218;2024-01-10T06:09:59;-23012.31;;;-4.90;83.16
29385;BME280;16367;48.736;9.218;2024-01-10T06:14:54;-23005.59;;;-5.11;85.08
29385;BME280;16367;48.736;9.218;2024-01-10T06:16:56;-23006.06;;;-5.10;86.05
29385;BME280;16367;48.736;9.218;2024-01-10T06:19:00;-23003.34;;;-5.18;86.05
29385;BME280;16367;48.736;9.218;2024-01-10T06:21:01;-23005.09;;;-5.13;86.05
29385;BME280;16367;48.736;9.218;2024-01-10T06:23:03;-23006.53;;;-5.08;86.18
29385;BME280;16367;48.736;9.218;2024-01-10T06:25:06;-23003.81;;;-5.17;86.79
29385;BME280;16367;48.736;9.218;2024-01-10T06:27:07;-23007.50;;;-5.05;86.18
29385;BME280;16367;48.736;9.218;2024-01-10T06:29:09;-23008.47;;;-5.02;86.07
29385;BME280;16367;48.736;9.218;2024-01-10T06:31:10;-23013.28;;;-4.87;85.86
29385;BME280;16367;48.736;9.218;2024-01-10T06:39:27;-23006.38;;;-5.09;86.92
29385;BME280;16367;48.736;9.218;2024-01-10T06:41:28;-23004.16;;;-5.16;87.13
29385;BME280;16367;48.736;9.218;2024-01-10T06:43:30;-23001.75;;;-5.23;87.72
29385;BME280;16367;48.736;9.218;2024-01-10T06:45:31;-23001.09;;;-5.25;88.33
29385;BME280;16367;48.736;9.218;2024-01-10T06:47:33;-23003.81;;;-5.17;88.56
29385;BME280;16367;48.736;9.218;2024-01-10T06:49:35;-22999.97;;;-5.29;88.93
29385;BME280;16367;48.736;9.218;2024-01-10T06:51:36;-23003.34;;;-5.18;88.68
29385;BME280;16367;48.736;9.218;2024-01-10T06:53:37;-23002.06;;;-5.22;88.87
29385;BME280;16367;48.736;9.218;2024-01-10T06:55:39;-23000.78;;;-5.26;88.96
29385;BME280;16367;48.736;9.218;2024-01-10T06:59:54;-23002.88;;;-5.20;88.69
29385;BME280;16367;48.736;9.218;2024-01-10T07:01:56;-22999.66;;;-5.30;89.57
29385;BME280;16367;48.736;9.218;2024-01-10T07:03:57;-22999.16;;;-5.32;89.80
29385;BME280;16367;48.736;9.218;2024-01-10T07:05:59;-23000.13;;;-5.29;89.91
29385;BME280;16367;48.736;9.218;2024-01-10T07:08:02;-23001.56;;;-5.24;89.72
29385;BME280;16367;48.736;9.218;2024-01-10T07:10:04;-23000.78;;;-5.26;89.52
29385;BME280;16367;48.736;9.218;2024-01-10T07:12:06;-23001.75;;;-5.23;89.75
29385;BME280;16367;48.736;9.218;2024-01-10T07:14:08;-23001.09;;;-5.25;90.14
29385;BME280;16367;48.736;9.218;2024-01-10T07:16:10;-23004.94;;;-5.13;89.93
29385;BME280;16367;48.736;9.218;2024-01-10T07:23:41;-23001.09;;;-5.25;89.65
29385;BME280;16367;48.736;9.218;2024-01-10T07:25:44;-22998.84;;;-5.33;90.39
29385;BME280;16367;48.736;9.218;2024-01-10T07:27:45;-22997.25;;;-5.38;90.67
29385;BME280;16367;48.736;9.218;2024-01-10T07:29:47;-22998.38;;;-5.34;91.24
29385;BME280;16367;48.736;9.218;2024-01-10T07:31:48;-22998.53;;;-5.34;91.09
29385;BME280;16367;48.736;9.218;2024-01-10T07:33:52;-22999.50;;;-5.31;90.98
29385;BME280;16367;48.736;9.218;2024-01-10T07:35:53;-23002.38;;;-5.21;91.58
29385;BME280;16367;48.736;9.218;2024-01-10T07:37:56;-23006.53;;;-5.08;91.27
29385;BME280;16367;48.736;9.218;2024-01-10T07:39:58;-23009.28;;;-5.00;90.83
29385;BME280;16367;48.736;9.218;2024-01-10T07:48:13;-23014.88;;;-4.82;89.38
29385;BME280;16367;48.736;9.218;2024-01-10T07:50:15;-23012.16;;;-4.91;89.15
29385;BME280;16367;48.736;9.218;2024-01-10T07:52:16;-23008.47;;;-5.02;89.47
29385;BME280;16367;48.736;9.218;2024-01-10T07:54:18;-23010.22;;;-4.97;89.63
29385;BME280;16367;48.736;9.218;2024-01-10T07:56:19;-23012.00;;;-4.91;89.57
29385;BME280;16367;48.736;9.218;2024-01-10T07:58:21;-23013.44;;;-4.87;89.58
29385;BME280;16367;48.736;9.218;2024-01-10T08:00:22;-23022.91;;;-4.57;88.51
29385;BME280;16367;48.736;9.218;2024-01-10T08:02:24;-23025.94;;;-4.47;87.89
29385;BME280;16367;48.736;9.218;2024-01-10T08:04:26;-23022.56;;;-4.58;87.88
29385;BME280;16367;48.736;9.218;2024-01-10T08:08:54;-23030.44;;;-4.33;87.38
29385;BME280;16367;48.736;9.218;2024-01-10T08:10:56;-23034.13;;;-4.22;87.75
29385;BME280;16367;48.736;9.218;2024-01-10T08:12:57;-23035.41;;;-4.18;87.63
29385;BME280;16367;48.736;9.218;2024-01-10T08:14:58;-23041.16;;;-4.00;86.85
29385;BME280;16367;48.736;9.218;2024-01-10T08:17:00;-23045.19;;;-3.87;86.64
29385;BME280;16367;48.736;9.218;2024-01-10T08:19:02;-23054.78;;;-3.57;85.43
29385;BME280;16367;48.736;9.218;2024-01-10T08:21:03;-23065.19;;;-3.24;84.35
29385;BME280;16367;48.736;9.218;2024-01-10T08:23:05;-23086.81;;;-2.56;83.37
29385;BME280;16367;48.736;9.218;2024-01-10T08:25:08;-23091.31;;;-2.42;82.70
29385;BME280;16367;48.736;9.218;2024-01-10T08:31:22;-23093.69;;;-2.35;77.04
29385;BME280;16367;48.736;9.218;2024-01-10T08:33:23;-23090.34;;;-2.45;77.79
29385;BME280;16367;48.736;9.218;2024-01-10T08:35:25;-23104.25;;;-2.01;77.04
29385;BME280;16367;48.736;9.218;2024-01-10T08:37:29;-23124.56;;;-1.37;74.97
29385;BME280;16367;48.736;9.218;2024-01-10T08:39:31;-23125.38;;;-1.35;73.29
29385;BME280;16367;48.736;9.218;2024-01-10T08:41:33;-23144.72;;;-0.74;71.42
29385;BME280;16367;48.736;9.218;2024-01-10T08:43:35;-23151.13;;;-0.54;69.89
29385;BME280;16367;48.736;9.218;2024-01-10T08:45:36;-23159.59;;;-0.27;68.42
29385;BME280;16367;48.736;9.218;2024-01-10T08:47:38;-23142.97;;;-0.80;68.48
29385;BME280;16367;48.736;9.218;2024-01-10T08:53:49;-23188.03;;;0.62;65.13
29385;BME280;16367;48.736;9.218;2024-01-10T08:55:50;-23169.50;;;0.04;64.80
29385;BME280;16367;48.736;9.218;2024-01-10T08:57:52;-23167.44;;;-0.03;67.04
29385;BME280;16367;48.736;9.218;2024-01-10T08:59:53;-23167.91;;;-0.01;66.66
29385;BME280;16367;48.736;9.218;2024-01-10T09:01:55;-23156.88;;;-0.36;65.80
29385;BME280;16367;48.736;9.218;2024-01-10T09:03:56;-23169.19;;;0.03;65.70
29385;BME280;16367;48.736;9.218;2024-01-10T09:05:58;-23190.44;;;0.70;63.89
29385;BME280;16367;48.736;9.218;2024-01-10T09:08:11;-23189.94;;;0.68;63.83
29385;BME280;16367;48.736;9.218;2024-01-10T09:10:13;-23209.13;;;1.29;62.76
29385;BME280;16367;48.736;9.218;2024-01-10T09:14:28;-23203.69;;;1.12;61.45
29385;BME280;16367;48.736;9.218;2024-01-10T09:16:30;-23164.38;;;-0.12;64.98
29385;BME280;16367;48.736;9.218;2024-01-10T09:18:31;-23183.88;;;0.49;62.44
29385;BME280;16367;48.736;9.218;2024-01-10T09:20:33;-23185.63;;;0.55;63.28
29385;BME280;16367;48.736;9.218;2024-01-10T09:22:34;-23198.25;;;0.95;63.90
29385;BME280;16367;48.736;9.218;2024-01-10T09:24:35;-23221.41;;;1.68;60.12
29385;BME280;16367;48.736;9.218;2024-01-10T09:26:37;-23161.84;;;-0.20;63.25
29385;BME280;16367;48.736;9.218;2024-01-10T09:28:38;-23139.44;;;-0.91;66.46
29385;BME280;16367;48.736;9.218;2024-01-10T09:30:41;-23174.28;;;0.19;65.66
29385;BME280;16367;48.736;9.218;2024-01-10T09:39:00;-23170.31;;;0.07;64.85
29385;BME280;16367;48.736;9.218;2024-01-10T09:41:04;-23174.78;;;0.21;66.17
29385;BME280;16367;48.736;9.218;2024-01-10T09:43:05;-23198.56;;;0.96;63.24
29385;BME280;16367;48.736;9.218;2024-01-10T09:45:09;-23154.47;;;-0.43;65.18
29385;BME280;16367;48.736;9.218;2024-01-10T09:47:12;-23125.38;;;-1.35;68.49
29385;BME280;16367;48.736;9.218;2024-01-10T09:49:14;-23139.28;;;-0.91;68.43
29385;BME280;16367;48.736;9.218;2024-01-10T09:51:16;-23129.22;;;-1.23;69.85
29385;BME280;16367;48.736;9.218;2024-01-10T09:53:22;-23147.59;;;-0.65;69.75
29385;BME280;16367;48.736;9.218;2024-01-10T09:55:26;-23131.94;;;-1.14;69.77
29385;BME280;16367;48.736;9.218;2024-01-10T10:01:43;-23139.78;;;-0.90;68.37
29385;BME280;16367;48.736;9.218;2024-01-10T10:03:46;-23148.72;;;-0.61;69.04
29385;BME280;16367;48.736;9.218;2024-01-10T10:05:53;-23145.84;;;-0.70;68.28
29385;BME280;16367;48.736;9.218;2024-01-10T10:07:54;-23141.06;;;-0.86;70.24
29385;BME280;16367;48.736;9.218;2024-01-10T10:09:56;-23123.78;;;-1.40;71.50
29385;BME280;16367;48.736;9.218;2024-01-10T10:11:58;-23133.53;;;-1.09;70.69
29385;BME280;16367;48.736;9.218;2024-01-10T10:14:16;-23133.69;;;-1.09;71.09
29385;BME280;16367;48.736;9.218;2024-01-10T10:16:23;-23129.06;;;-1.23;72.25
29385;BME280;16367;48.736;9.218;2024-01-10T10:18:25;-23126.97;;;-1.30;71.25
29385;BME280;16367;48.736;9.218;2024-01-10T10:24:41;-23109.22;;;-1.86;73.77
29385;BME280;16367;48.736;9.218;2024-01-10T10:26:45;-23110.19;;;-1.83;74.61
29385;BME280;16367;48.736;9.218;2024-01-10T10:28:47;-23118.66;;;-1.56;74.32
29385;BME280;16367;48.736;9.218;2024-01-10T10:30:51;-23124.75;;;-1.37;73.98
29385;BME280;16367;48.736;9.218;2024-01-10T10:32:54;-23125.06;;;-1.36;74.31
29385;BME280;16367;48.736;9.218;2024-01-10T10:34:56;-23124.56;;;-1.37;73.85
29385;BME280;16367;48.736;9.218;2024-01-10T10:36:57;-23124.41;;;-1.38;74.16
29385;BME280;16367;48.736;9.218;2024-01-10T10:39:00;-23111.94;;;-1.77;75.85
29385;BME280;16367;48.736;9.218;2024-01-10T10:41:05;-23111.78;;;-1.78;76.55
29385;BME280;16367;48.736;9.218;2024-01-10T10:46:11;-23112.91;;;-1.74;76.17
29385;BME280;16367;48.736;9.218;2024-01-10T10:48:16;-23121.38;;;-1.47;76.73
29385;BME280;16367;48.736;9.218;2024-01-10T10:50:21;-23116.25;;;-1.64;75.93
29385;BME280;16367;48.736;9.218;2024-01-10T10:52:23;-23113.22;;;-1.73;76.55
29385;BME280;16367;48.736;9.218;2024-01-10T10:54:28;-23126.03;;;-1.33;76.80
29385;BME280;16367;48.736;9.218;2024-01-10T10:56:32;-23114.19;;;-1.70;76.05
29385;BME280;16367;48.736;9.218;2024-01-10T10:58:38;-23114.97;;;-1.68;77.93
29385;BME280;16367;48.736;9.218;2024-01-10T11:00:40;-23110.50;;;-1.82;77.47
29385;BME280;16367;48.736;9.218;2024-01-10T11:02:44;-23114.50;;;-1.69;77.59
29385;BME280;16367;48.736;9.218;2024-01-10T11:07:08;-23115.47;;;-1.66;77.36
29385;BME280;16367;48.736;9.218;2024-01-10T11:09:11;-23117.38;;;-1.60;78.17
29385;BME280;16367;48.736;9.218;2024-01-10T11:11:25;-23112.91;;;-1.74;77.24
29385;BME280;16367;48.736;9.218;2024-01-10T11:13:44;-23109.84;;;-1.84;78.61
29385;BME280;16367;48.736;9.218;2024-01-10T11:16:30;-23122.34;;;-1.44;78.10
29385;BME280;16367;48.736;9.218;2024-01-10T11:18:54;-23115.47;;;-1.66;77.97
29385;BME280;16367;48.736;9.218;2024-01-10T11:21:12;-23116.75;;;-1.62;78.33
29385;BME280;16367;48.736;9.218;2024-01-10T11:31:51;-23134.50;;;-1.06;77.16
29385;BME280;16367;48.736;9.218;2024-01-10T11:33:55;-23129.38;;;-1.22;76.80
29385;BME280;16367;48.736;9.218;2024-01-10T11:36:12;-23130.81;;;-1.18;77.42
29385;BME280;16367;48.736;9.218;2024-01-10T11:38:14;-23130.00;;;-1.20;78.14
29385;BME280;16367;48.736;9.218;2024-01-10T11:40:45;-23134.81;;;-1.05;77.59
29385;BME280;16367;48.736;9.218;2024-01-10T11:42:45;-23131.94;;;-1.14;76.89
29385;BME280;16367;48.736;9.218;2024-01-10T11:44:48;-23135.13;;;-1.04;77.42
29385;BME280;16367;48.736;9.218;2024-01-10T11:46:53;-23138.66;;;-0.93;77.33
29385;BME280;16367;48.736;9.218;2024-01-10T11:48:55;-23135.94;;;-1.02;77.51
29385;BME280;16367;48.736;9.218;2024-01-10T11:55:47;-23128.41;;;-1.25;77.83
29385;BME280;16367;48.736;9.218;2024-01-10T11:58:07;-23129.53;;;-1.22;78.49
29385;BME280;16367;48.736;9.218;2024-01-10T12:00:10;-23125.22;;;-1.35;79.62
29385;BME280;16367;48.736;9.218;2024-01-10T12:02:13;-23143.59;;;-0.78;78.50
29385;BME280;16367;48.736;9.218;2024-01-10T12:04:16;-23144.25;;;-0.76;78.01
29385;BME280;16367;48.736;9.218;2024-01-10T12:06:31;-23126.03;;;-1.33;78.29
29385;BME280;16367;48.736;9.218;2024-01-10T12:08:32;-23133.53;;;-1.09;78.61
29385;BME280;16367;48.736;9.218;2024-01-10T12:10:34;-23136.25;;;-1.01;78.97
29385;BME280;16367;48.736;9.218;2024-01-10T12:12:38;-23139.44;;;-0.91;78.06
29385;BME280;16367;48.736;9.218;2024-01-10T12:18:52;-23143.13;;;-0.79;78.27
29385;BME280;16367;48.736;9.218;2024-01-10T12:20:54;-23142.97;;;-0.80;77.89
29385;BME280;16367;48.736;9.218;2024-01-10T12:22:55;-23146.16;;;-0.69;78.28
29385;BME280;16367;48.736;9.218;2024-01-10T12:25:04;-23135.28;;;-1.04;77.85
29385;BME280;16367;48.736;9.218;2024-01-10T12:27:05;-23134.03;;;-1.08;79.12
29385;BME280;16367;48.736;9.218;2024-01-10T12:29:07;-23138.50;;;-0.94;78.54
29385;BME280;16367;48.736;9.218;2024-01-10T12:31:08;-23145.84;;;-0.70;78.79
29385;BME280;16367;48.736;9.218;2024-01-10T12:33:10;-23139.28;;;-0.91;79.39
29385;BME280;16367;48.736;9.218;2024-01-10T12:35:13;-23134.34;;;-1.07;79.97
29385;BME280;16367;48.736;9.218;2024-01-10T12:41:28;-23139.13;;;-0.92;78.38
29385;BME280;16367;48.736;9.218;2024-01-10T12:43:29;-23147.75;;;-0.64;78.07
29385;BME280;16367;48.736;9.218;2024-01-10T12:45:31;-23156.06;;;-0.38;78.08
29385;BME280;16367;48.736;9.218;2024-01-10T12:47:34;-23153.19;;;-0.47;77.68
29385;BME280;16367;48.736;9.218;2024-01-10T12:49:36;-23134.50;;;-1.06;79.25
29385;BME280;16367;48.736;9.218;2024-01-10T12:51:38;-23140.41;;;-0.88;79.27
29385;BME280;16367;48.736;9.218;2024-01-10T12:53:42;-23131.94;;;-1.14;79.89
29385;BME280;16367;48.736;9.218;2024-01-10T12:55:43;-23152.25;;;-0.50;79.21
29385;BME280;16367;48.736;9.218;2024-01-10T12:59:59;-23147.44;;;-0.65;79.09
29385;BME280;16367;48.736;9.218;2024-01-10T13:02:01;-23154.31;;;-0.44;78.31
29385;BME280;16367;48.736;9.218;2024-01-10T13:04:03;-23129.53;;;-1.22;79.85
29385;BME280;16367;48.736;9.218;2024-01-10T13:06:09;-23142.00;;;-0.83;81.24
29385;BME280;16367;48.736;9.218;2024-01-10T13:08:11;-23174.63;;;0.20;78.74
29385;BME280;16367;48.736;9.218;2024-01-10T13:10:13;-23151.28;;;-0.53;79.22